createdAt,value
2022-12-04T00:00:24.784Z,34.43
2022-12-04T00:03:13.597Z,37.07
2022-12-04T00:06:08.777Z,35.10
2022-12-04T00:09:03.443Z,34.23
2022-12-04T00:11:53.384Z,34.37
2022-12-04T00:15:16.517Z,37.67
2022-12-04T00:17:50.632Z,40.87
2022-12-04T00:20:42.675Z,34.30
2022-12-04T00:23:32.149Z,33.83
2022-12-04T00:26:33.518Z,35.17
2022-12-04T00:29:23.535Z,34.43
2022-12-04T00:32:12.128Z,32.90
2022-12-04T00:35:00.732Z,36.77
2022-12-04T00:37:53.154Z,37.93
2022-12-04T00:40:42.826Z,35.17
2022-12-04T00:43:32.087Z,32.33
2022-12-04T00:46:25.183Z,34.10
2022-12-04T00:49:21.646Z,31.93
2022-12-04T00:52:13.202Z,30.63
2022-12-04T00:55:03.452Z,35.27
2022-12-04T00:57:55.774Z,35.17
2022-12-04T01:00:52.135Z,31.70
2022-12-04T01:03:45.671Z,32.37
2022-12-04T01:06:37.278Z,29.60
2022-12-04T01:09:27.079Z,31.53
2022-12-04T01:12:20.856Z,34.70
2022-12-04T01:15:14.776Z,37.40
2022-12-04T01:18:03.308Z,34.60
2022-12-04T01:20:53.650Z,32.93
2022-12-04T01:23:42.204Z,31.03
2022-12-04T01:26:33.363Z,32.30
2022-12-04T01:29:21.942Z,31.73
2022-12-04T01:32:10.651Z,35.07
2022-12-04T01:35:03.943Z,34.73
2022-12-04T01:37:55.991Z,36.40
2022-12-04T01:40:47.061Z,32.97
2022-12-04T01:43:39.380Z,36.83
2022-12-04T01:46:29.313Z,32.37
2022-12-04T01:49:24.071Z,33.70
2022-12-04T01:52:15.556Z,34.20
2022-12-04T01:55:08.211Z,35.40
2022-12-04T01:57:58.652Z,35.70
2022-12-04T02:00:51.495Z,36.00
2022-12-04T02:03:44.829Z,33.73
2022-12-04T02:06:33.421Z,34.90
2022-12-04T02:09:26.732Z,41.60
2022-12-04T02:12:21.207Z,37.83
2022-12-04T02:15:25.770Z,34.13
2022-12-04T02:18:21.331Z,34.60
2022-12-04T02:21:13.813Z,32.03
2022-12-04T02:24:29.758Z,31.83
2022-12-04T02:27:31.825Z,40.20
2022-12-04T02:30:25.938Z,33.60
2022-12-04T02:33:22.852Z,35.67
2022-12-04T02:36:18.988Z,33.27
2022-12-04T02:39:13.344Z,36.47
2022-12-04T02:42:09.462Z,31.70
2022-12-04T02:44:59.564Z,32.30
2022-12-04T02:47:53.785Z,36.07
2022-12-04T02:50:48.337Z,34.40
2022-12-04T02:53:39.030Z,36.00
2022-12-04T02:56:32.259Z,38.23
2022-12-04T02:59:22.631Z,35.60
2022-12-04T03:02:14.591Z,31.30
2022-12-04T03:05:06.376Z,37.17
2022-12-04T03:07:56.684Z,36.20
2022-12-04T03:10:48.560Z,34.80
2022-12-04T03:13:39.526Z,37.37
2022-12-04T03:16:32.005Z,34.93
2022-12-04T03:19:23.328Z,31.50
2022-12-04T03:22:19.818Z,34.97
2022-12-04T03:25:13.169Z,36.10
2022-12-04T03:28:04.081Z,33.83
2022-12-04T03:30:59.088Z,37.93
2022-12-04T03:33:51.819Z,38.87
2022-12-04T03:36:45.435Z,35.57
2022-12-04T03:39:45.776Z,35.30
2022-12-04T03:42:40.092Z,38.00
2022-12-04T03:45:30.602Z,33.37
2022-12-04T03:48:24.518Z,32.30
2022-12-04T03:51:25.960Z,34.77
2022-12-04T03:54:32.565Z,31.83
2022-12-04T03:57:29.532Z,34.03
2022-12-04T04:00:19.363Z,38.87
2022-12-04T04:03:15.621Z,34.80
2022-12-04T04:06:07.953Z,34.07
2022-12-04T04:08:59.283Z,36.40
2022-12-04T04:11:54.341Z,33.60
2022-12-04T04:15:06.996Z,32.27
2022-12-04T04:18:13.478Z,33.40
2022-12-04T04:21:22.831Z,44.50
2022-12-04T04:24:17.850Z,31.73
2022-12-04T04:27:09.187Z,32.30
2022-12-04T04:30:02.349Z,33.27
2022-12-04T04:32:56.868Z,31.83
2022-12-04T04:35:49.167Z,34.47
2022-12-04T04:38:41.803Z,33.00
2022-12-04T04:41:39.518Z,29.47
2022-12-04T04:44:30.299Z,33.20
2022-12-04T04:47:30.844Z,32.17
2022-12-04T04:50:19.803Z,36.43
2022-12-04T04:53:10.319Z,33.90
2022-12-04T04:56:01.855Z,37.73
2022-12-04T04:58:53.621Z,37.80
2022-12-04T05:01:47.030Z,34.73
2022-12-04T05:04:42.155Z,30.70
2022-12-04T05:07:30.770Z,33.30
2022-12-04T05:10:21.070Z,33.40
2022-12-04T05:13:15.243Z,35.73
2022-12-04T05:16:06.438Z,36.20
2022-12-04T05:19:18.474Z,36.47
2022-12-04T05:22:09.537Z,35.37
2022-12-04T05:25:01.778Z,31.83
2022-12-04T05:27:50.414Z,34.03
2022-12-04T05:30:41.507Z,40.13
2022-12-04T05:33:35.056Z,37.17
2022-12-04T05:36:26.521Z,30.33
2022-12-04T05:39:16.510Z,33.73
2022-12-04T05:42:09.310Z,33.03
2022-12-04T05:45:01.614Z,34.70
2022-12-04T05:47:52.938Z,33.33
2022-12-04T05:50:44.213Z,32.20
2022-12-04T05:53:32.766Z,32.63
2022-12-04T05:56:26.127Z,39.60
2022-12-04T05:59:15.083Z,33.03
2022-12-04T06:02:05.031Z,35.53
2022-12-04T06:04:53.680Z,34.27
2022-12-04T06:07:42.262Z,37.07
2022-12-04T06:10:30.974Z,35.30
2022-12-04T06:13:25.773Z,39.07
2022-12-04T06:16:16.387Z,36.37
2022-12-04T06:19:06.276Z,33.37
2022-12-04T06:21:55.871Z,38.17
2022-12-04T06:24:49.475Z,37.23
2022-12-04T06:27:46.462Z,37.03
2022-12-04T06:30:39.652Z,36.73
2022-12-04T06:33:28.237Z,35.77
2022-12-04T06:36:21.039Z,39.50
2022-12-04T06:39:15.554Z,38.43
2022-12-04T06:42:11.577Z,39.83
2022-12-04T06:45:05.277Z,36.87
2022-12-04T06:48:02.218Z,32.87
2022-12-04T06:50:59.482Z,38.63
2022-12-04T06:53:48.493Z,38.37
2022-12-04T06:56:38.305Z,39.27
2022-12-04T06:59:30.054Z,36.57
2022-12-04T07:02:18.693Z,38.63
2022-12-04T07:05:11.364Z,33.83
2022-12-04T07:08:00.217Z,38.07
2022-12-04T07:10:57.438Z,34.60
2022-12-04T07:13:50.738Z,37.87
2022-12-04T07:16:42.035Z,42.13
2022-12-04T07:19:31.042Z,37.00
2022-12-04T07:22:20.996Z,42.37
2022-12-04T07:25:09.941Z,38.50
2022-12-04T07:27:58.589Z,35.43
2022-12-04T07:30:47.194Z,38.10
2022-12-04T07:33:36.097Z,36.87
2022-12-04T07:36:25.201Z,41.23
2022-12-04T07:39:15.126Z,38.47
2022-12-04T07:42:03.672Z,39.10
2022-12-04T07:44:52.282Z,40.83
2022-12-04T07:47:40.903Z,43.20
2022-12-04T07:50:29.534Z,38.93
2022-12-04T07:53:18.198Z,41.93
2022-12-04T07:56:11.587Z,36.13
2022-12-04T07:59:00.485Z,42.47
2022-12-04T08:01:49.178Z,40.47
2022-12-04T08:04:38.877Z,36.97
2022-12-04T08:07:27.579Z,41.73
2022-12-04T08:10:19.012Z,38.50
2022-12-04T08:13:11.750Z,38.43
2022-12-04T08:16:02.876Z,40.33
2022-12-04T08:18:52.720Z,40.20
2022-12-04T08:21:41.357Z,42.20
2022-12-04T08:24:30.010Z,43.27
2022-12-04T08:27:18.831Z,39.10
2022-12-04T08:30:09.939Z,39.57
2022-12-04T08:32:58.596Z,41.07
2022-12-04T08:35:47.240Z,40.57
2022-12-04T08:38:35.802Z,40.20
2022-12-04T08:41:26.062Z,41.57
2022-12-04T08:44:17.157Z,37.47
2022-12-04T08:47:07.137Z,40.20
2022-12-04T08:49:56.003Z,43.20
2022-12-04T08:52:44.708Z,40.73
2022-12-04T08:55:33.287Z,39.87
2022-12-04T08:58:21.953Z,37.83
2022-12-04T09:01:12.182Z,41.97
2022-12-04T09:04:02.465Z,42.30
2022-12-04T09:06:51.125Z,37.40
2022-12-04T09:09:43.507Z,39.33
2022-12-04T09:12:35.249Z,40.33
2022-12-04T09:15:24.172Z,40.00
2022-12-04T09:18:12.791Z,39.07
2022-12-04T09:21:03.659Z,41.03
2022-12-04T09:23:52.279Z,41.67
2022-12-04T09:26:40.913Z,33.50
2022-12-04T09:29:29.453Z,36.43
2022-12-04T09:32:18.168Z,38.83
2022-12-04T09:35:07.627Z,36.53
2022-12-04T09:37:59.103Z,39.10
2022-12-04T09:40:51.969Z,38.60
2022-12-04T09:43:44.013Z,38.17
2022-12-04T09:46:34.474Z,43.00
2022-12-04T09:49:25.018Z,38.83
2022-12-04T09:52:22.201Z,37.20
2022-12-04T09:55:16.375Z,36.07
2022-12-04T09:58:07.004Z,32.43
2022-12-04T10:00:56.514Z,36.30
2022-12-04T10:03:45.240Z,36.40
2022-12-04T10:06:39.388Z,35.80
2022-12-04T10:09:32.755Z,35.60
2022-12-04T10:12:24.636Z,32.90
2022-12-04T10:15:15.960Z,31.77
2022-12-04T10:18:15.646Z,33.40
2022-12-04T10:21:11.375Z,33.73
2022-12-04T10:24:06.751Z,36.43
2022-12-04T10:26:56.764Z,32.10
2022-12-04T10:29:49.405Z,37.57
2022-12-04T10:32:38.192Z,33.33
2022-12-04T10:35:29.416Z,37.27
2022-12-04T10:38:25.344Z,36.40
2022-12-04T10:41:17.092Z,35.70
2022-12-04T10:44:05.819Z,34.87
2022-12-04T10:46:57.737Z,33.53
2022-12-04T10:49:46.470Z,34.63
2022-12-04T10:52:35.119Z,33.60
2022-12-04T10:55:33.496Z,34.90
2022-12-04T10:58:22.454Z,33.90
2022-12-04T11:01:15.989Z,32.03
2022-12-04T11:04:09.071Z,32.47
2022-12-04T11:07:03.215Z,31.20
2022-12-04T11:10:03.146Z,30.23
2022-12-04T11:12:56.064Z,35.77
2022-12-04T11:15:48.565Z,33.00
2022-12-04T11:18:47.912Z,33.33
2022-12-04T11:21:40.689Z,34.47
2022-12-04T11:24:32.724Z,36.30
2022-12-04T11:27:25.528Z,31.40
2022-12-04T11:30:16.058Z,31.70
2022-12-04T11:33:05.998Z,32.90
2022-12-04T11:35:57.148Z,31.00
2022-12-04T11:38:50.003Z,30.20
2022-12-04T11:41:40.684Z,34.23
2022-12-04T11:44:31.162Z,33.13
2022-12-04T11:47:22.389Z,34.47
2022-12-04T11:50:15.667Z,29.20
2022-12-04T11:53:07.715Z,33.40
2022-12-04T11:56:16.455Z,29.40
2022-12-04T11:59:20.498Z,30.80
2022-12-04T12:02:22.021Z,32.33
2022-12-04T12:05:18.549Z,33.67
2022-12-04T12:08:11.111Z,31.40
2022-12-04T12:11:05.422Z,32.83
2022-12-04T12:13:59.778Z,32.77
2022-12-04T12:19:57.360Z,31.93
2022-12-04T12:22:57.293Z,34.80
2022-12-04T12:25:52.339Z,33.33
2022-12-04T12:28:52.580Z,30.93
2022-12-04T12:32:00.206Z,31.50
2022-12-04T12:34:49.385Z,30.50
2022-12-04T12:37:43.142Z,32.40
2022-12-04T12:40:34.169Z,32.23
2022-12-04T12:43:30.205Z,31.00
2022-12-04T12:46:22.770Z,30.17
2022-12-04T12:49:15.028Z,28.43
2022-12-04T12:52:07.911Z,28.17
2022-12-04T12:54:57.778Z,24.90
2022-12-04T12:57:48.303Z,26.50
2022-12-04T13:00:39.563Z,30.97
2022-12-04T13:03:30.987Z,31.33
2022-12-04T13:06:22.602Z,28.67
2022-12-04T13:09:18.366Z,29.23
2022-12-04T13:12:10.799Z,28.90
2022-12-04T13:14:59.375Z,27.90
2022-12-04T13:17:49.764Z,26.77
2022-12-04T13:20:43.782Z,26.97
2022-12-04T13:23:43.571Z,28.60
2022-12-04T13:26:44.861Z,28.67
2022-12-04T13:29:43.021Z,27.23
2022-12-04T13:32:40.103Z,30.60
2022-12-04T13:35:36.451Z,27.13
2022-12-04T13:38:28.246Z,26.00
2022-12-04T13:41:19.942Z,27.43
2022-12-04T13:44:15.239Z,25.00
2022-12-04T13:47:05.160Z,24.83
2022-12-04T13:49:53.727Z,24.27
2022-12-04T13:52:42.958Z,25.70
2022-12-04T13:55:33.215Z,25.17
2022-12-04T13:58:28.343Z,25.80
2022-12-04T14:01:26.363Z,26.30
2022-12-04T14:04:24.970Z,26.40
2022-12-04T14:07:23.953Z,22.70
2022-12-04T14:10:27.386Z,26.03
2022-12-04T14:13:20.667Z,27.57
2022-12-04T14:16:17.649Z,27.33
2022-12-04T14:19:06.913Z,26.50
2022-12-04T14:21:55.781Z,23.40
2022-12-04T14:24:44.326Z,23.00
2022-12-04T14:27:34.864Z,25.43
2022-12-04T14:30:24.829Z,25.53
2022-12-04T14:33:19.000Z,25.63
2022-12-04T14:36:14.148Z,27.20
2022-12-04T14:39:10.712Z,26.80
2022-12-04T14:42:06.603Z,26.90
2022-12-04T14:44:56.703Z,27.70
2022-12-04T14:47:50.710Z,31.07
2022-12-04T14:50:44.860Z,29.20
2022-12-04T14:53:37.642Z,27.07
2022-12-04T14:56:30.555Z,28.80
2022-12-04T14:59:20.090Z,27.27
2022-12-04T15:02:12.881Z,29.27
2022-12-04T15:05:01.995Z,32.03
2022-12-04T15:07:52.711Z,30.67
2022-12-04T15:10:59.480Z,31.80
2022-12-04T15:13:48.116Z,32.20
2022-12-04T15:16:36.692Z,30.90
2022-12-04T15:19:25.274Z,29.43
2022-12-04T15:22:16.743Z,34.63
2022-12-04T15:25:07.214Z,32.30
2022-12-04T15:28:01.403Z,31.57
2022-12-04T15:30:50.689Z,30.77
2022-12-04T15:33:39.872Z,34.20
2022-12-04T15:36:32.723Z,31.80
2022-12-04T15:39:23.114Z,33.50
2022-12-04T15:42:18.861Z,32.87
2022-12-04T15:45:23.223Z,30.90
2022-12-04T15:48:12.940Z,33.20
2022-12-04T15:51:03.118Z,31.40
2022-12-04T15:53:51.865Z,32.90
2022-12-04T15:56:40.458Z,32.00
2022-12-04T15:59:31.850Z,31.87
2022-12-04T16:02:25.163Z,29.60
2022-12-04T16:05:14.320Z,28.90
2022-12-04T16:08:03.868Z,28.73
2022-12-04T16:10:59.580Z,28.50
2022-12-04T16:13:51.671Z,27.13
2022-12-04T16:16:43.633Z,28.10
2022-12-04T16:19:33.978Z,29.90
2022-12-04T16:22:23.677Z,27.90
2022-12-04T16:25:12.960Z,31.30
2022-12-04T16:28:01.708Z,30.80
2022-12-04T16:30:54.842Z,30.93
2022-12-04T16:33:44.872Z,26.30
2022-12-04T16:36:33.486Z,30.20
2022-12-04T16:39:22.055Z,31.73
2022-12-04T16:42:15.515Z,31.10
2022-12-04T16:45:04.385Z,29.93
2022-12-04T16:47:53.084Z,29.03
2022-12-04T16:50:43.322Z,33.10
2022-12-04T16:53:54.447Z,33.43
2022-12-04T16:56:43.259Z,33.10
2022-12-04T16:59:31.785Z,31.90
2022-12-04T17:02:24.006Z,31.57
2022-12-04T17:05:19.730Z,28.30
2022-12-04T17:08:09.805Z,27.53
2022-12-04T17:10:58.407Z,30.93
2022-12-04T17:13:47.183Z,30.13
2022-12-04T17:16:35.962Z,33.97
2022-12-04T17:19:24.674Z,33.47
2022-12-04T17:22:14.150Z,29.03
2022-12-04T17:25:04.101Z,32.07
2022-12-04T17:27:52.679Z,29.30
2022-12-04T17:30:41.235Z,29.97
2022-12-04T17:33:29.934Z,34.70
2022-12-04T17:36:19.562Z,29.10
2022-12-04T17:39:11.453Z,25.80
2022-12-04T17:42:01.383Z,32.10
2022-12-04T17:44:49.932Z,27.77
2022-12-04T17:47:41.638Z,27.10
2022-12-04T17:50:30.209Z,30.47
2022-12-04T17:53:20.399Z,30.93
2022-12-04T17:56:09.914Z,30.73
2022-12-04T17:58:59.902Z,29.67
2022-12-04T18:01:49.587Z,27.00
2022-12-04T18:04:38.282Z,28.10
2022-12-04T18:07:26.919Z,24.30
2022-12-04T18:10:15.518Z,23.90
2022-12-04T18:13:04.128Z,25.93
2022-12-04T18:15:56.828Z,23.23
2022-12-04T18:18:46.955Z,22.00
2022-12-04T18:21:35.792Z,22.70
2022-12-04T18:24:25.470Z,23.00
2022-12-04T18:27:14.347Z,22.00
2022-12-04T18:30:07.195Z,21.17
2022-12-04T18:32:58.227Z,23.70
2022-12-04T18:35:54.430Z,23.50
2022-12-04T18:38:46.032Z,21.87
2022-12-04T18:41:34.687Z,21.83
2022-12-04T18:44:25.063Z,23.10
2022-12-04T18:47:17.431Z,20.20
2022-12-04T18:50:11.083Z,21.77
2022-12-04T18:53:02.857Z,21.40
2022-12-04T18:55:51.409Z,24.40
2022-12-04T18:58:39.999Z,21.20
2022-12-04T19:01:28.993Z,23.37
2022-12-04T19:04:22.341Z,24.07
2022-12-04T19:07:12.428Z,25.77
2022-12-04T19:10:16.338Z,24.70
2022-12-04T19:13:05.051Z,23.73
2022-12-04T19:15:53.706Z,23.23
2022-12-04T19:18:44.599Z,23.20
2022-12-04T19:21:33.409Z,27.63
2022-12-04T19:24:23.401Z,26.20
2022-12-04T19:27:12.058Z,23.93
2022-12-04T19:30:00.940Z,27.90
2022-12-04T19:32:49.608Z,23.53
2022-12-04T19:35:38.233Z,26.47
2022-12-04T19:38:27.169Z,23.03
2022-12-04T19:41:18.362Z,24.13
2022-12-04T19:44:32.452Z,24.37
2022-12-04T19:47:15.666Z,24.10
2022-12-04T19:50:04.592Z,26.20
2022-12-04T19:52:55.335Z,23.03
2022-12-04T19:55:43.936Z,22.40
2022-12-04T19:58:35.327Z,21.50
2022-12-04T20:01:26.672Z,22.03
2022-12-04T20:04:15.548Z,23.77
2022-12-04T20:07:04.115Z,20.83
2022-12-04T20:09:52.937Z,26.30
2022-12-04T20:12:41.515Z,24.07
2022-12-04T20:15:32.880Z,22.20
2022-12-04T20:18:21.406Z,25.67
2022-12-04T20:21:11.840Z,24.43
2022-12-04T20:24:01.894Z,24.77
2022-12-04T20:26:50.749Z,22.97
2022-12-04T20:29:39.306Z,24.13
2022-12-04T20:32:32.692Z,27.70
2022-12-04T20:35:26.591Z,25.90
2022-12-04T20:38:17.092Z,25.57
2022-12-04T20:41:05.673Z,27.80
2022-12-04T20:43:56.807Z,24.27
2022-12-04T20:46:45.507Z,22.37
2022-12-04T20:49:35.595Z,24.60
2022-12-04T20:52:24.171Z,25.77
2022-12-04T20:55:15.757Z,24.60
2022-12-04T20:58:04.353Z,24.57
2022-12-04T21:00:54.092Z,24.60
2022-12-04T21:03:44.162Z,22.07
2022-12-04T21:06:40.007Z,22.20
2022-12-04T21:09:30.799Z,24.23
2022-12-04T21:12:42.883Z,23.00
2022-12-04T21:15:51.653Z,23.40
2022-12-04T21:18:40.343Z,26.20
2022-12-04T21:21:31.054Z,24.90
2022-12-04T21:24:26.715Z,23.80
2022-12-04T21:27:25.738Z,23.70
2022-12-04T21:30:14.834Z,27.87
2022-12-04T21:33:05.161Z,25.93
2022-12-04T21:35:53.662Z,26.23
2022-12-04T21:38:46.392Z,29.17
2022-12-04T21:41:54.098Z,27.93
2022-12-04T21:44:44.560Z,28.93
2022-12-04T21:47:35.157Z,29.93
2022-12-04T21:50:23.911Z,26.97
2022-12-04T21:53:12.496Z,29.30
2022-12-04T21:56:03.751Z,27.40
2022-12-04T21:59:03.935Z,32.80
2022-12-04T22:01:53.087Z,26.43
2022-12-04T22:04:44.177Z,29.80
2022-12-04T22:07:32.896Z,28.50
2022-12-04T22:10:21.502Z,27.40
2022-12-04T22:13:10.318Z,27.13
2022-12-04T22:16:03.376Z,28.43
2022-12-04T22:18:55.183Z,28.30
2022-12-04T22:21:43.728Z,27.37
2022-12-04T22:24:35.058Z,26.93
2022-12-04T22:27:26.348Z,27.27
2022-12-04T22:30:22.399Z,27.40
2022-12-04T22:33:12.329Z,26.93
2022-12-04T22:36:04.532Z,25.30
2022-12-04T22:39:11.139Z,27.70
2022-12-04T22:41:59.944Z,25.97
2022-12-04T22:44:48.583Z,25.40
2022-12-04T22:47:43.337Z,27.80
2022-12-04T22:50:35.828Z,27.33
2022-12-04T22:53:27.350Z,29.03
2022-12-04T22:56:17.165Z,23.70
2022-12-04T22:59:06.133Z,25.37
2022-12-04T23:02:02.470Z,25.53
2022-12-04T23:04:56.657Z,27.03
2022-12-04T23:07:48.630Z,25.87
2022-12-04T23:10:38.232Z,24.27
2022-12-04T23:13:26.829Z,26.03
2022-12-04T23:16:20.289Z,28.43
2022-12-04T23:19:11.578Z,28.43
2022-12-04T23:22:00.191Z,23.47
2022-12-04T23:24:50.246Z,27.17
2022-12-04T23:27:38.860Z,25.33
2022-12-04T23:30:36.656Z,25.53
2022-12-04T23:33:26.882Z,25.07
2022-12-04T23:36:17.307Z,27.30
2022-12-04T23:39:07.720Z,23.33
2022-12-04T23:42:00.201Z,28.10
2022-12-04T23:44:53.481Z,24.50
2022-12-04T23:47:43.562Z,24.17
2022-12-04T23:50:34.831Z,22.10
2022-12-04T23:53:28.085Z,23.20
2022-12-04T23:56:17.379Z,23.73
2022-12-04T23:59:07.540Z,23.03
